Flight Track Log - Related Links

Times and Time Zones

All times are in EST time to prevent confusion due to time zone crossing. See the N3745Q flight status page for this flight to view local times or setup timezone preferences in your user account.

Time Position Orientation Groundspeed Altitude Reporting Facility
EST Latitude Longitude Course Direction KTS MPH feet Rate Location/Type
Thu 03:45:00 PM 26.3410 -81.7915 350° North  Level FlightAware Approximate
Thu 03:46:00 PM 26.3726 -81.7979 350° North  Level FlightAware Approximate
Thu 03:47:00 PM 26.4044 -81.8019 355° North  Level FlightAware Approximate
Thu 03:48:00 PM 26.4364 -81.8049 355° North  Level FlightAware Approximate
Thu 03:49:00 PM 26.4684 -81.8079 355° North  Level FlightAware Approximate
Thu 03:50:00 PM 26.5003 -81.8108 355° North  Level FlightAware Approximate
Thu 03:51:00 PM 26.5323 -81.8138 355° North  Level FlightAware Approximate
Thu 03:52:00 PM 26.5642 -81.8167 355° North  Level FlightAware Approximate
Thu 03:53:00 PM 26.5962 -81.8197 355° North  Level FlightAware Approximate
Thu 03:54:00 PM 26.6282 -81.8227 355° North  Level FlightAware Approximate
Thu 03:55:00 PM 26.6601 -81.8257 355° North  Level FlightAware Approximate
Thu 03:56:00 PM 26.6921 -81.8286 355° North  Level FlightAware Approximate
Thu 03:57:00 PM 26.7240 -81.8316 355° North  Level FlightAware Approximate
Thu 03:58:00 PM 26.7560 -81.8346 355° North  Level FlightAware Approximate
Thu 03:59:00 PM 26.7880 -81.8375 355° North  Level FlightAware Approximate
Thu 03:59:26 PM 26.6500 -81.8069 355° North 113 130 6,100  Level Miami Center
Thu 04:00:00 PM 26.8199 -81.8405 355° North  Level FlightAware Approximate
Thu 04:00:26 PM 26.6833 -81.8108 354° North 113 130 6,100  Level Miami Center
Thu 04:01:00 PM 26.8519 -81.8435 355° North  Level FlightAware Approximate
Thu 04:01:26 PM 26.7144 -81.8167 350° North 113 130 6,100  Level Miami Center
Thu 04:02:00 PM 26.8838 -81.8465 355° North  Level FlightAware Approximate
Thu 04:02:26 PM 26.7478 -81.8228 351° North 113 130 6,100  Level Miami Center
Thu 04:03:00 PM 26.9158 -81.8494 355° North  Level FlightAware Approximate
Thu 04:03:26 PM 26.7789 -81.8264 354° North 113 130 6,100  Level Miami Center
Thu 04:04:26 PM 26.8103 -81.8278 358° North 113 130 6,000  Descending Miami Center
Thu 04:05:26 PM 26.8433 -81.8383 344° North 113 130 6,100 50 Climbing Miami Center
Thu 04:06:26 PM 26.8683 -81.8394 358° North 113 130 6,100  Level Miami Center
Thu 04:07:26 PM 26.8994 -81.8456 350° North 113 130 6,100 -50 Level Miami Center
Thu 04:08:26 PM 26.9306 -81.8492 354° North 119 137 6,000 -50 Descending Miami Center
Thu 04:09:26 PM 26.9658 -81.8575 348° North 119 137 6,000  Level Miami Center
Thu 04:10:26 PM 26.9969 -81.8589 358° North 119 137 6,000 50 Level Miami Center
Thu 04:11:26 PM 27.0322 -81.8653 351° North 124 143 6,100  Climbing Miami Center
Thu 04:12:26 PM 27.0633 -81.8689 354° North 119 137 6,000  Descending Miami Center
Thu 04:13:26 PM 27.0967 -81.8750 351° North 119 137 6,100 50 Climbing Miami Center
Thu 04:14:26 PM 27.1278 -81.8808 351° North 119 137 6,100  Level Miami Center
Thu 04:15:26 PM 27.1608 -81.8847 354° North 119 137 6,100  Level Miami Center
Thu 04:16:26 PM 27.1919 -81.8908 350° North 119 137 6,100  Level Miami Center
Thu 04:17:26 PM 27.2231 -81.8967 351° North 114 131 6,100  Level Miami Center
Thu 04:18:26 PM 27.2564 -81.9006 354° North 114 131 6,100  Level Miami Center
Thu 04:19:26 PM 27.2875 -81.9067 350° North 114 131 6,100  Level Miami Center
Thu 04:20:26 PM 27.3208 -81.9103 355° North 114 131 6,100  Level Miami Center
Thu 04:21:26 PM 27.3539 -81.9164 351° North 120 138 6,100  Level Miami Center
Thu 04:22:26 PM 27.3850 -81.9203 354° North 120 138 6,100  Level Miami Center
Thu 04:23:26 PM 27.4161 -81.9264 350° North 120 138 6,100  Level Miami Center
Thu 04:24:26 PM 27.4475 -81.9300 354° North 120 138 6,100  Level Miami Center
Thu 04:25:26 PM 27.4786 -81.9361 350° North 120 138 6,100  Level Miami Center
Thu 04:26:26 PM 27.5075 -81.9397 354° North 115 132 6,100  Level Miami Center
Thu 04:27:26 PM 27.5408 -81.9436 354° North 115 132 6,100  Level Miami Center
Thu 04:28:26 PM 27.5700 -81.9469 354° North 107 123 6,100  Level Miami Center
Thu 04:29:26 PM 27.6031 -81.9533 350° North 107 123 6,100 -50 Level Miami Center
Thu 04:30:26 PM 27.6258 -81.9567 353° North 101 116 6,000 -50 Descending Miami Center
Thu 04:31:26 PM 27.6611 -81.9628 351° North 106 122 6,000  Level Miami Center
Thu 04:32:26 PM 27.6944 -81.9692 350° North 106 122 6,000  Level Miami Center
Thu 04:33:26 PM 27.7256 -81.9728 354° North 106 122 6,000  Level Miami Center
Thu 04:34:26 PM 27.7544 -81.9789 349° North 106 122 6,000  Level Miami Center
Thu 04:35:26 PM 27.7836 -81.9800 358° North 106 122 6,000  Level Miami Center
Thu 04:37:13 PM 27.8500 -82.0000 345° North 111 128 6,000  Level Tampa TRACON
Thu 04:38:08 PM 27.8667 -82.0000 360° North 109 125 6,000  Level Tampa TRACON
Thu 04:39:08 PM 27.9000 -82.0000 360° North 110 127 6,000  Level Tampa TRACON
Thu 04:40:14 PM 27.9333 -82.0000 360° North 111 128 6,000  Level Tampa TRACON
Thu 04:41:14 PM 27.9667 -82.0167 336° Northwest 113 130 6,000  Level Tampa TRACON
Thu 04:42:14 PM 28.0000 -82.0167 360° North 117 135 6,000  Level Tampa TRACON
Thu 04:43:14 PM 28.0333 -82.0167 360° North 110 127 6,000  Level Tampa TRACON
Thu 04:44:14 PM 28.0500 -82.0333 319° Northwest 109 125 6,000  Level Tampa TRACON
Thu 04:45:20 PM 28.0833 -82.0333 360° North 108 124 6,000  Level Tampa TRACON
Thu 04:46:20 PM 28.1167 -82.0333 360° North 108 124 6,000  Level Tampa TRACON
Thu 04:47:14 PM 28.1500 -82.0500 336° Northwest 108 124 6,000  Level Tampa TRACON
Thu 04:48:14 PM 28.1833 -82.0500 360° North 106 122 6,000  Level Tampa TRACON
Thu 04:49:14 PM 28.2000 -82.0500 360° North 105 121 6,000  Level Tampa TRACON
Thu 04:50:14 PM 28.2333 -82.0667 336° Northwest 104 120 6,000  Level Tampa TRACON
Thu 04:51:20 PM 28.2667 -82.0667 360° North 105 121 6,000  Level Tampa TRACON
Thu 04:52:14 PM 28.2833 -82.0667 360° North 105 121 6,000  Level Tampa TRACON
Thu 04:53:14 PM 28.3167 -82.0667 360° North 106 122 6,000  Level Tampa TRACON
Thu 04:54:14 PM 28.3500 -82.0833 336° Northwest 103 119 6,000  Level Tampa TRACON
Thu 04:55:15 PM 28.3833 -82.0833 360° North 100 115 6,000  Level Tampa TRACON
Thu 04:56:15 PM 28.4000 -82.0833 360° North 103 119 6,000  Level Tampa TRACON
Thu 04:57:15 PM 28.4333 -82.1000 336° Northwest 107 123 6,000  Level Tampa TRACON
Thu 04:58:15 PM 28.4667 -82.1000 360° North 105 121 6,000  Level Tampa TRACON
Thu 04:59:15 PM 28.5000 -82.1000 360° North 105 121 6,000  Level Tampa TRACON
Thu 05:00:15 PM 28.5167 -82.1167 319° Northwest 105 121 6,000 -47 Level Tampa TRACON
Thu 05:01:22 PM 28.5525 -82.1175 359° North 103 119 5,900 -38 Descending Jacksonville Center
Thu 05:02:54 PM 28.5964 -82.1264 350° North 106 122 5,900  Level Jacksonville Center
Thu 05:03:55 PM 28.6256 -82.1311 352° North 105 121 5,900  Level Jacksonville Center
Thu 05:05:02 PM 28.6569 -82.1356 353° North 103 119 5,900  Level Jacksonville Center
Thu 05:05:51 PM 28.6800 -82.1400 350° North 104 120 5,900  Level Jacksonville Center
Thu 05:07:04 PM 28.7153 -82.1444 354° North 105 121 5,900  Level Jacksonville Center
Thu 05:07:59 PM 28.7425 -82.1514 347° North 106 122 5,900  Level Jacksonville Center
Thu 05:08:54 PM 28.7697 -82.1561 351° North 103 119 5,900  Level Jacksonville Center
Thu 05:10:01 PM 28.7989 -82.1628 349° North 104 120 5,900  Level Jacksonville Center
Thu 05:10:56 PM 28.8239 -82.1650 356° North 102 117 5,900  Level Jacksonville Center
Thu 05:11:50 PM 28.8511 -82.1719 347° North 103 119 5,900  Level Jacksonville Center
Thu 05:12:51 PM 28.8806 -82.1742 356° North 102 117 5,900  Level Jacksonville Center
Thu 05:13:58 PM 28.9117 -82.1833 346° North 103 119 5,900  Level Jacksonville Center
Thu 05:14:59 PM 28.9411 -82.1878 352° North 102 117 5,900  Level Jacksonville Center
Thu 05:16:00 PM 28.9703 -82.1900 356° North 102 117 5,900  Level Jacksonville Center
Thu 05:17:01 PM 28.9975 -82.1969 347° North 104 120 5,900  Level Jacksonville Center
Thu 05:18:02 PM 29.0247 -82.2017 351° North 103 119 5,900  Level Jacksonville Center
Thu 05:18:57 PM 29.0517 -82.2061 352° North 103 119 5,900  Level Jacksonville Center
Thu 05:19:52 PM 29.0789 -82.2106 352° North 105 121 5,900  Level Jacksonville Center
Thu 05:20:59 PM 29.1122 -82.2175 350° North 103 119 5,900  Level Jacksonville Center
Thu 05:22:00 PM 29.1417 -82.2222 352° North 104 120 5,900  Level Jacksonville Center
Thu 05:23:01 PM 29.1708 -82.2292 348° North 107 123 5,900  Level Jacksonville Center
Thu 05:24:02 PM 29.2000 -82.2314 356° North 107 123 5,900  Level Jacksonville Center
Thu 05:25:03 PM 29.2336 -82.2333 357° North 111 128 5,900  Level Jacksonville Center
Thu 05:26:04 PM 29.2606 -82.2356 356° North 110 127 5,900  Level Jacksonville Center
Thu 05:27:05 PM 29.2942 -82.2378 357° North 107 123 5,900  Level Jacksonville Center
Thu 05:28:06 PM 29.3211 -82.2425 351° North 103 119 5,900  Level Jacksonville Center
Thu 05:29:07 PM 29.3506 -82.2444 357° North 105 121 5,900  Level Jacksonville Center
Thu 05:30:08 PM 29.3817 -82.2467 356° North 104 120 5,900  Level Jacksonville Center
Thu 05:31:09 PM 29.4089 -82.2489 356° North 100 115 5,900  Level Jacksonville Center
Thu 05:32:10 PM 29.4381 -82.2511 356° North 101 116 5,900  Level Jacksonville Center
Thu 05:33:11 PM 29.4675 -82.2558 352° North 103 119 5,900  Level Jacksonville Center
Thu 05:34:06 PM 29.4944 -82.2556 North 104 120 5,900  Level Jacksonville Center
Thu 05:35:07 PM 29.5239 -82.2600 353° North 105 121 5,900  Level Jacksonville Center
Thu 05:36:02 PM 29.5489 -82.2647 351° North 103 119 5,900  Level Jacksonville Center
Thu 05:37:03 PM 29.5781 -82.2644 360° North 102 117 5,900  Level Jacksonville Center
Thu 05:38:10 PM 29.6094 -82.2692 353° North 103 119 5,900  Level Jacksonville Center
Thu 05:39:17 PM 29.6428 -82.2689 360° North 103 119 5,900  Level Jacksonville Center
Thu 05:40:18 PM 29.6700 -82.2736 351° North 101 116 5,900  Level Jacksonville Center
Thu 05:41:25 PM 29.7033 -82.2756 357° North 104 120 5,900  Level Jacksonville Center
Thu 05:42:20 PM 29.7306 -82.2803 351° North 105 121 5,900  Level Jacksonville Center
Thu 05:43:21 PM 29.7597 -82.2800 360° North 104 120 5,900  Level Jacksonville Center
Thu 05:44:22 PM 29.7892 -82.2822 356° North 102 117 5,900 49 Level Jacksonville Center
Thu 05:45:23 PM 29.8161 -82.2822 360° North 103 119 6,000 47 Climbing Jacksonville Center
Thu 05:46:30 PM 29.8497 -82.2844 357° North 102 117 6,000  Level Jacksonville Center
Thu 05:47:31 PM 29.8767 -82.2842 North 100 115 6,000  Level Jacksonville Center
Thu 05:48:32 PM 29.9039 -82.2864 356° North 100 115 6,000  Level Jacksonville Center
Thu 05:49:33 PM 29.9331 -82.2886 356° North 99 114 6,000  Level Jacksonville Center
Thu 05:50:34 PM 29.9622 -82.2908 356° North 100 115 6,000  Level Jacksonville Center
Thu 05:51:35 PM 29.9894 -82.2931 356° North 101 116 6,000  Level Jacksonville Center
Thu 05:52:36 PM 30.0167 -82.2928 North 95 109 6,000  Level Jacksonville Center
Thu 05:53:31 PM 30.0417 -82.2950 356° North 98 113 6,000  Level Jacksonville Center
Thu 05:54:32 PM 30.0689 -82.2972 356° North 99 114 6,000  Level Jacksonville Center
Thu 05:55:33 PM 30.0961 -82.2994 356° North 96 110 6,000  Level Jacksonville Center
Thu 05:56:28 PM 30.1211 -82.2994 360° North 97 112 6,000  Level Jacksonville Center
Thu 05:57:29 PM 30.1483 -82.3017 356° North 99 114 6,000  Level Jacksonville Center
Thu 05:58:36 PM 30.1817 -82.3039 357° North 100 115 6,000  Level Jacksonville Center
Thu 05:59:31 PM 30.2067 -82.3061 356° North 100 115 6,000 -155 Level Jacksonville Center
Thu 06:00:32 PM 30.2358 -82.3058 360° North 105 121 5,700 -295 Descending Jacksonville Center
Thu 06:01:33 PM 30.2672 -82.3081 357° North 115 132 5,400 -344 Descending Jacksonville Center
Thu 06:02:34 PM 30.2986 -82.3103 357° North 116 133 5,000 -197 Descending Jacksonville Center
Thu 06:03:35 PM 30.3319 -82.3125 357° North 107 123 5,000  Level Jacksonville Center
Thu 06:04:36 PM 30.3592 -82.3147 356° North 102 117 5,000  Level Jacksonville Center
Thu 06:05:35 PM 30.3883 -82.3147 360° North 99 114 5,000  Level Jacksonville Center
Thu 06:05:37 PM 30.3883 -82.3169 270° West 100 115 5,000  Level Jacksonville Center
Thu 06:06:35 PM 30.4175 -82.3169 360° North 99 114 5,000  Level Jacksonville Center
Thu 06:06:38 PM 30.4156 -82.3169 180° South 102 117 5,000  Level Jacksonville Center
Thu 06:07:35 PM 30.4428 -82.3167 North 114 131 5,000  Level Jacksonville Center
Thu 06:08:35 PM 30.4719 -82.3214 352° North 103 119 5,000  Level Jacksonville Center
Thu 06:09:35 PM 30.4992 -82.3211 North 103 119 5,000  Level Jacksonville Center
Thu 06:10:35 PM 30.5283 -82.3233 356° North 103 119 5,000  Level Jacksonville Center
Thu 06:11:35 PM 30.5556 -82.3256 356° North 103 119 5,000  Level Jacksonville Center
Thu 06:12:35 PM 30.5825 -82.3256 360° North 103 119 5,000  Level Jacksonville Center
Thu 06:13:35 PM 30.6097 -82.3303 352° North 103 119 5,000  Level Jacksonville Center
Thu 06:14:35 PM 30.6389 -82.3300 360° North 103 119 5,000  Level Jacksonville Center
Thu 06:15:35 PM 30.6661 -82.3322 356° North 103 119 5,000  Level Jacksonville Center
Thu 06:16:35 PM 30.6933 -82.3322 360° North 103 119 5,000  Level Jacksonville Center
Thu 06:17:35 PM 30.7225 -82.3197 20° North 103 119 5,000  Level Jacksonville Center
Thu 06:18:35 PM 30.7517 -82.3100 16° North 103 119 5,000  Level Jacksonville Center
Thu 06:19:35 PM 30.7808 -82.3003 16° North 103 119 5,000  Level Jacksonville Center
Thu 06:20:35 PM 30.8081 -82.2928 13° North 103 119 5,000  Level Jacksonville Center
Thu 06:21:35 PM 30.8372 -82.2828 16° North 103 119 5,000  Level Jacksonville Center
Thu 06:22:35 PM 30.8664 -82.2731 16° North 103 119 5,000  Level Jacksonville Center
Thu 06:23:35 PM 30.8933 -82.2631 18° North 103 119 5,000  Level Jacksonville Center
Thu 06:24:35 PM 30.9206 -82.2558 13° North 103 119 5,000  Level Jacksonville Center
Thu 06:25:34 PM 30.9497 -82.2458 16° North 103 119 5,000  Level Jacksonville Center
Thu 06:26:35 PM 30.9811 -82.2358 15° North 103 119 5,000  Level Jacksonville Center
Thu 06:27:35 PM 31.0061 -82.2283 14° North 103 119 5,000  Level Jacksonville Center
Thu 06:28:35 PM 31.0353 -82.2186 16° North 103 119 5,000 -150 Level Jacksonville Center
Thu 06:29:35 PM 31.0664 -82.2086 15° North 103 119 4,700 -400 Descending Jacksonville Center
Thu 06:30:35 PM 31.1019 -82.1961 17° North 108 124 4,200 -600 Descending Jacksonville Center
Thu 06:31:35 PM 31.1353 -82.1864 14° North 113 130 3,500 -550 Descending Jacksonville Center
Thu 06:32:35 PM 31.1728 -82.1739 16° North 124 143 3,100 -250 Descending Jacksonville Center
Thu 06:33:35 PM 31.2061 -82.1614 18° North 124 143 3,000 -50 Descending Jacksonville Center
Thu 06:34:35 PM 31.2394 -82.1539 11° North 124 143 3,000  Level Jacksonville Center
Thu 06:35:35 PM 31.2686 -82.1414 20° North 119 137 3,000  Level Jacksonville Center
Thu 06:36:35 PM 31.3019 -82.1317 14° North 119 137 3,000  Level Jacksonville Center
Thu 06:37:35 PM 31.3333 -82.1217 15° North 119 137 3,000  Level Jacksonville Center
Thu 06:38:35 PM 31.3667 -82.1067 21° North 124 143 3,000  Level Jacksonville Center
Thu 06:39:35 PM 31.4000 -82.0967 14° North 124 143 3,000  Level Jacksonville Center
Thu 06:40:34 PM 31.4311 -82.0867 15° North 124 143 3,000  Level Jacksonville Center
Thu 06:41:35 PM 31.4625 -82.0767 15° North 124 143 3,000  Level Jacksonville Center
Thu 06:42:35 PM 31.4936 -82.0667 15° North 124 143 3,000  Level Jacksonville Center
Thu 06:43:35 PM 31.5311 -82.0542 16° North 124 143 3,000  Level Jacksonville Center
Thu 06:44:35 PM 31.5625 -82.0442 15° North 124 143 3,000  Level Jacksonville Center
Thu 06:45:35 PM 31.5936 -82.0339 16° North 124 143 3,000  Level Jacksonville Center
Thu 06:46:35 PM 31.6228 -82.0239 16° North 119 137 3,000  Level Jacksonville Center
Thu 06:47:35 PM 31.6542 -82.0139 15° North 119 137 3,000 -50 Level Jacksonville Center
Thu 06:48:35 PM 31.6750 -82.0236 338° Northwest 84 97 2,900 -100 Descending Jacksonville Center

Login

Don't have an account? Register now (free) for customized features, flight alerts, and more!